createdAt,value
2022-10-29T06:30:29.839Z,6.20
2022-10-29T06:33:09.908Z,5.97
2022-10-29T06:35:46.999Z,5.80
2022-10-29T06:38:24.029Z,5.88
2022-10-29T06:41:00.671Z,5.40
2022-10-29T06:43:37.806Z,5.53
2022-10-29T06:46:14.671Z,5.30
2022-10-29T06:48:54.697Z,5.07
2022-10-29T06:51:31.440Z,4.90
2022-10-29T06:54:09.664Z,4.70
2022-10-29T06:56:46.893Z,4.95
2022-10-29T06:59:24.815Z,4.95
2022-10-29T07:02:01.833Z,5.95
2022-10-29T07:04:41.535Z,5.05
2022-10-29T07:07:18.750Z,5.28
2022-10-29T07:09:55.799Z,4.60
2022-10-29T07:12:32.647Z,5.03
2022-10-29T07:15:10.950Z,4.80
2022-10-29T07:17:57.578Z,4.20
2022-10-29T07:20:40.540Z,4.28
2022-10-29T07:23:17.953Z,4.47
2022-10-29T07:25:57.090Z,3.70
2022-10-29T07:28:36.841Z,4.28
2022-10-29T07:31:15.360Z,4.25
2022-10-29T07:33:53.539Z,3.55
2022-10-29T07:36:34.330Z,3.42
2022-10-29T07:39:11.610Z,3.75
2022-10-29T07:41:48.629Z,3.40
2022-10-29T07:44:26.878Z,3.65
2022-10-29T07:47:03.889Z,4.00
2022-10-29T07:49:41.108Z,3.95
2022-10-29T07:52:21.210Z,3.22
2022-10-29T07:55:01.037Z,3.28
2022-10-29T07:57:38.321Z,3.45
2022-10-29T08:00:17.187Z,3.50
2022-10-29T08:02:57.630Z,3.58
2022-10-29T08:05:35.648Z,3.17
2022-10-29T08:08:15.304Z,3.05
2022-10-29T08:10:52.232Z,3.33
2022-10-29T08:13:30.025Z,4.05
2022-10-29T08:16:07.233Z,3.30
2022-10-29T08:18:45.431Z,3.22
2022-10-29T08:21:22.632Z,3.20
2022-10-29T08:24:02.405Z,3.67
2022-10-29T08:26:39.242Z,3.20
2022-10-29T08:29:16.513Z,2.63
2022-10-29T08:31:53.210Z,2.67
2022-10-29T08:34:30.370Z,2.60
2022-10-29T08:37:07.020Z,2.95
2022-10-29T08:39:46.711Z,2.50
2022-10-29T08:42:48.114Z,2.90
2022-10-29T08:48:34.161Z,3.65
2022-10-29T08:51:21.560Z,2.88
2022-10-29T08:57:07.272Z,3.20
2022-10-29T08:59:56.625Z,2.92
2022-10-29T09:02:34.089Z,2.67
2022-10-29T09:05:17.549Z,2.78
2022-10-29T09:08:15.798Z,3.35
2022-10-29T09:10:58.062Z,2.75
2022-10-29T09:13:59.025Z,2.72
2022-10-29T09:16:47.321Z,2.78
2022-10-29T09:19:43.150Z,2.47
2022-10-29T09:22:28.146Z,2.85
2022-10-29T09:25:19.749Z,2.60
2022-10-29T09:28:12.570Z,2.38
2022-10-29T09:31:06.339Z,3.00
2022-10-29T09:36:24.270Z,2.72
2022-10-29T09:39:09.872Z,3.13
2022-10-29T09:41:53.129Z,2.88
2022-10-29T09:44:41.751Z,2.85
2022-10-29T09:47:37.181Z,2.80
2022-10-29T09:50:25.891Z,2.65
2022-10-29T09:53:03.722Z,2.35
2022-10-29T09:55:44.121Z,2.92
2022-10-29T09:58:25.242Z,3.15
2022-10-29T10:01:02.031Z,3.35
2022-10-29T10:03:46.070Z,2.50
2022-10-29T10:06:23.323Z,3.22
2022-10-29T10:09:05.196Z,2.67
2022-10-29T10:11:45.875Z,2.70
2022-10-29T10:14:26.874Z,2.30
2022-10-29T10:17:07.214Z,2.70
2022-10-29T10:19:50.503Z,2.80
2022-10-29T10:22:27.537Z,2.15
2022-10-29T10:25:04.712Z,2.50
2022-10-29T10:27:41.505Z,2.75
2022-10-29T10:30:23.300Z,2.60
2022-10-29T10:33:15.484Z,2.38
2022-10-29T10:35:57.622Z,2.80
2022-10-29T10:38:43.563Z,2.60
2022-10-29T10:41:28.432Z,2.50
2022-10-29T10:44:08.114Z,2.67
2022-10-29T10:46:47.829Z,2.70
2022-10-29T10:49:35.564Z,2.95
2022-10-29T10:52:24.963Z,2.30
2022-10-29T10:55:05.933Z,1.98
2022-10-29T10:57:57.320Z,2.55
2022-10-29T11:00:40.939Z,2.13
2022-10-29T11:06:28.344Z,2.00
2022-10-29T11:09:21.194Z,2.70
2022-10-29T11:12:04.762Z,2.20
2022-10-29T11:14:50.073Z,2.33
2022-10-29T11:17:34.528Z,2.25
2022-10-29T11:20:23.638Z,2.20
2022-10-29T11:23:18.417Z,2.47
2022-10-29T11:26:08.277Z,2.40
2022-10-29T11:28:52.094Z,2.78
2022-10-29T11:31:43.714Z,2.10
2022-10-29T11:34:26.499Z,2.20
2022-10-29T11:37:12.208Z,2.45
2022-10-29T11:39:55.453Z,2.30
2022-10-29T11:42:36.626Z,2.55
2022-10-29T11:45:20.195Z,2.10
2022-10-29T11:48:22.027Z,2.05
2022-10-29T11:51:08.395Z,2.17
2022-10-29T11:54:02.140Z,2.03
2022-10-29T11:59:58.799Z,2.50
2022-10-29T12:03:25.261Z,2.35
2022-10-29T12:06:16.947Z,1.95
2022-10-29T12:09:08.876Z,1.92
2022-10-29T12:11:54.181Z,2.20
2022-10-29T12:14:41.936Z,2.75
2022-10-29T12:17:25.025Z,1.80
2022-10-29T12:20:09.645Z,1.67
2022-10-29T12:23:00.743Z,2.42
2022-10-29T12:25:59.092Z,3.35
2022-10-29T12:28:50.305Z,1.63
2022-10-29T12:31:39.150Z,2.08
2022-10-29T12:34:30.926Z,2.22
2022-10-29T12:37:16.909Z,3.00
2022-10-29T12:40:01.158Z,1.85
2022-10-29T12:42:38.949Z,1.63
2022-10-29T12:45:53.082Z,2.03
2022-10-29T12:48:50.302Z,1.90
2022-10-29T12:51:44.030Z,1.92
2022-10-29T12:57:34.353Z,1.88
2022-10-29T13:00:55.014Z,1.52
2022-10-29T13:04:05.623Z,1.40
2022-10-29T13:07:01.566Z,1.65
2022-10-29T13:09:48.936Z,1.70
2022-10-29T13:13:03.242Z,2.20
2022-10-29T13:15:43.825Z,2.25
2022-10-29T13:18:31.767Z,2.13
2022-10-29T13:21:18.953Z,1.88
2022-10-29T13:24:08.354Z,1.92
2022-10-29T13:27:10.023Z,1.92
2022-10-29T13:29:57.152Z,2.20
2022-10-29T13:32:44.307Z,1.77
2022-10-29T13:35:45.754Z,2.10
2022-10-29T13:38:58.072Z,2.10
2022-10-29T13:41:45.728Z,2.20
2022-10-29T13:44:32.871Z,2.75
2022-10-29T13:47:30.499Z,2.35
2022-10-29T13:50:27.205Z,2.80
2022-10-29T13:53:19.384Z,2.33
2022-10-29T13:56:06.659Z,2.90
2022-10-29T13:58:48.517Z,1.70
2022-10-29T14:01:35.081Z,2.08
2022-10-29T14:04:28.961Z,2.13
2022-10-29T14:07:23.234Z,2.30
2022-10-29T14:10:23.164Z,2.10
2022-10-29T14:13:19.148Z,2.33
2022-10-29T14:16:14.304Z,1.90
2022-10-29T14:18:57.637Z,1.83
2022-10-29T14:21:44.643Z,2.65
2022-10-29T14:24:27.108Z,2.78
2022-10-29T14:27:12.132Z,3.67
2022-10-29T14:29:57.384Z,2.53
2022-10-29T14:32:47.441Z,2.20
2022-10-29T14:35:31.586Z,2.33
2022-10-29T14:38:14.155Z,2.53
2022-10-29T14:40:53.841Z,2.28
2022-10-29T14:43:36.388Z,2.40
2022-10-29T14:46:38.576Z,2.58
2022-10-29T14:49:23.480Z,3.08
2022-10-29T14:52:06.024Z,2.42
2022-10-29T14:54:55.014Z,2.30
2022-10-29T14:57:41.666Z,2.50
2022-10-29T15:00:30.350Z,2.10
2022-10-29T15:03:22.898Z,2.10
2022-10-29T15:06:24.445Z,3.33
2022-10-29T15:09:07.802Z,2.80
2022-10-29T15:12:03.100Z,2.63
2022-10-29T15:14:53.718Z,2.70
2022-10-29T15:17:39.642Z,2.65
2022-10-29T15:20:31.122Z,2.20
2022-10-29T15:23:09.785Z,4.43
2022-10-29T15:25:50.904Z,4.10
2022-10-29T15:28:32.140Z,3.88
2022-10-29T15:31:10.502Z,5.70
2022-10-29T15:33:49.307Z,5.80
2022-10-29T15:36:29.269Z,2.28
2022-10-29T15:39:27.117Z,2.63
2022-10-29T15:42:05.141Z,3.10
2022-10-29T15:44:43.322Z,2.78
2022-10-29T15:47:30.491Z,2.75
2022-10-29T15:50:09.241Z,2.20
2022-10-29T15:52:51.922Z,3.20
2022-10-29T15:55:34.314Z,2.63
2022-10-29T15:58:18.097Z,3.08
2022-10-29T16:03:35.485Z,3.13
2022-10-29T16:06:15.910Z,2.83
2022-10-29T16:08:59.041Z,2.50
2022-10-29T16:11:38.050Z,3.17
2022-10-29T16:14:15.222Z,2.88
2022-10-29T16:16:52.067Z,3.20
2022-10-29T16:19:29.361Z,2.95
2022-10-29T16:22:06.274Z,2.85
2022-10-29T16:24:45.981Z,2.42
2022-10-29T16:27:22.921Z,2.05
2022-10-29T16:30:00.125Z,2.80
2022-10-29T16:32:37.000Z,2.78
2022-10-29T16:35:21.722Z,3.95
2022-10-29T16:37:59.960Z,3.35
2022-10-29T16:40:40.404Z,3.63
2022-10-29T16:43:17.192Z,4.03
2022-10-29T16:45:54.560Z,3.40
2022-10-29T16:48:32.160Z,3.00
2022-10-29T16:51:11.138Z,3.58
2022-10-29T16:53:48.859Z,3.30
2022-10-29T16:56:28.990Z,3.72
2022-10-29T16:59:06.012Z,3.05
2022-10-29T17:01:45.179Z,2.88
2022-10-29T17:04:27.071Z,3.67
2022-10-29T17:07:06.313Z,2.97
2022-10-29T17:09:44.097Z,4.28
2022-10-29T17:12:27.476Z,2.85
2022-10-29T17:15:05.164Z,2.70
2022-10-29T17:17:45.586Z,2.63
2022-10-29T17:20:24.236Z,2.83
2022-10-29T17:23:01.470Z,2.80
2022-10-29T17:25:38.191Z,2.90
2022-10-29T17:28:18.069Z,2.60
2022-10-29T17:30:55.122Z,2.85
2022-10-29T17:33:32.369Z,2.67
2022-10-29T17:36:19.380Z,3.53
2022-10-29T17:38:57.304Z,2.75
2022-10-29T17:41:34.483Z,2.85
2022-10-29T17:44:14.389Z,3.38
2022-10-29T17:46:52.001Z,2.72
2022-10-29T17:49:29.882Z,3.05
2022-10-29T17:52:07.716Z,2.60
2022-10-29T17:54:45.178Z,2.55
2022-10-29T17:57:23.605Z,2.38
2022-10-29T18:00:04.382Z,2.47
2022-10-29T18:02:45.733Z,2.80
2022-10-29T18:05:39.926Z,2.17
